createdAt,value
2016-07-01T00:00:53.997Z,22.57
2016-07-01T00:01:53.414Z,22.63
2016-07-01T00:02:54.279Z,22.59
2016-07-01T00:03:54.087Z,22.6
2016-07-01T00:04:54.716Z,22.55
2016-07-01T00:05:54.146Z,22.55
2016-07-01T00:06:54.980Z,22.59
2016-07-01T00:07:54.804Z,22.55
2016-07-01T00:08:54.825Z,22.63
2016-07-01T00:09:53.623Z,22.6
2016-07-01T00:10:54.295Z,22.63
2016-07-01T00:11:54.294Z,22.55
2016-07-01T00:12:54.332Z,22.53
2016-07-01T00:13:53.746Z,22.53
2016-07-01T00:14:55.011Z,22.53
2016-07-01T00:15:54.419Z,22.44
2016-07-01T00:16:54.429Z,22.54
2016-07-01T00:17:53.834Z,22.51
2016-07-01T00:18:54.481Z,22.47
2016-07-01T00:19:54.496Z,22.51
2016-07-01T00:20:54.529Z,22.48
2016-07-01T00:21:54.570Z,22.59
2016-07-01T00:22:54.586Z,22.53
2016-07-01T00:23:55.245Z,22.54
2016-07-01T00:24:54.634Z,22.48
2016-07-01T00:25:55.299Z,22.47
2016-07-01T00:26:55.304Z,22.5
2016-07-01T00:27:54.117Z,22.5
2016-07-01T00:28:55.369Z,22.47
2016-07-01T00:29:54.185Z,22.45
2016-07-01T00:30:55.415Z,22.41
2016-07-01T00:31:55.466Z,22.41
2016-07-01T00:32:55.477Z,22.38
2016-07-01T00:33:55.505Z,22.39
2016-07-01T00:34:55.549Z,22.39
2016-07-01T00:35:54.319Z,22.33
2016-07-01T00:36:55.598Z,22.38
2016-07-01T00:37:55.621Z,22.36
2016-07-01T00:38:54.397Z,22.39
2016-07-01T00:39:55.046Z,22.3
2016-07-01T00:40:55.098Z,22.33
2016-07-01T00:41:55.123Z,22.28
2016-07-01T00:42:55.151Z,22.22
2016-07-01T00:43:55.814Z,22.25
2016-07-01T00:44:55.801Z,22.25
2016-07-01T00:45:55.837Z,22.2
2016-07-01T00:46:55.851Z,22.28
2016-07-01T00:47:55.910Z,22.3
2016-07-01T00:48:54.705Z,22.22
2016-07-01T00:49:55.935Z,22.25
2016-07-01T00:50:54.738Z,22.2
2016-07-01T00:51:55.387Z,22.22
2016-07-01T00:52:56.025Z,22.13
2016-07-01T00:53:54.819Z,22.13
2016-07-01T00:54:55.459Z,22.15
2016-07-01T00:55:56.121Z,22.18
2016-07-01T00:56:55.520Z,22.14
2016-07-01T00:57:55.550Z,22.11
2016-07-01T00:58:56.186Z,22.06
2016-07-01T00:59:55.613Z,22
2016-07-01T01:00:55.634Z,22.04
2016-07-01T01:01:56.286Z,22.08
2016-07-01T01:02:55.066Z,22.04
2016-07-01T01:03:55.704Z,21.96
2016-07-01T01:04:55.750Z,22.04
2016-07-01T01:05:56.395Z,22
2016-07-01T01:06:56.399Z,22.02
2016-07-01T01:07:55.204Z,22.06
2016-07-01T01:08:56.467Z,22
2016-07-01T01:09:56.498Z,21.98
2016-07-01T01:10:55.279Z,21.99
2016-07-01T01:11:56.546Z,21.91
2016-07-01T01:12:56.560Z,22.02
2016-07-01T01:13:56.604Z,21.92
2016-07-01T01:14:56.638Z,21.93
2016-07-01T01:15:56.039Z,21.91
2016-07-01T01:16:56.072Z,21.83
2016-07-01T01:17:55.485Z,21.91
2016-07-01T01:18:56.728Z,21.85
2016-07-01T01:19:56.154Z,21.91
2016-07-01T01:20:56.778Z,21.88
2016-07-01T01:21:56.206Z,21.91
2016-07-01T01:22:56.215Z,21.88
2016-07-01T01:23:56.875Z,21.83
2016-07-01T01:24:55.644Z,21.83
2016-07-01T01:25:56.311Z,21.8
2016-07-01T01:26:56.318Z,21.76
2016-07-01T01:27:56.982Z,21.79
2016-07-01T01:28:56.393Z,21.64
2016-07-01T01:29:57.038Z,21.66
2016-07-01T01:30:56.420Z,21.7
2016-07-01T01:31:57.076Z,21.73
2016-07-01T01:32:57.101Z,21.69
2016-07-01T01:33:57.142Z,21.67
2016-07-01T01:34:57.159Z,21.64
2016-07-01T01:35:55.957Z,21.66
2016-07-01T01:36:56.605Z,21.58
2016-07-01T01:37:56.062Z,21.62
2016-07-01T01:38:57.260Z,21.6
2016-07-01T01:39:56.665Z,21.6
2016-07-01T01:40:56.694Z,21.58
2016-07-01T01:41:57.346Z,21.57
2016-07-01T01:42:56.142Z,21.6
2016-07-01T01:43:56.162Z,21.51
2016-07-01T01:44:57.443Z,21.67
2016-07-01T01:45:56.859Z,21.6
2016-07-01T01:46:57.481Z,21.58
2016-07-01T01:47:57.502Z,21.43
2016-07-01T01:48:57.538Z,21.55
2016-07-01T01:49:57.565Z,21.48
2016-07-01T01:50:56.966Z,21.4
2016-07-01T01:51:56.990Z,21.52
2016-07-01T01:52:57.009Z,21.4
2016-07-01T01:53:57.062Z,21.48
2016-07-01T01:54:56.466Z,21.46
2016-07-01T01:55:56.486Z,21.46
2016-07-01T01:56:56.510Z,21.42
2016-07-01T01:57:57.769Z,21.37
2016-07-01T01:58:57.798Z,21.36
2016-07-01T01:59:57.832Z,21.4
2016-07-01T02:00:57.863Z,21.33
2016-07-01T02:01:57.902Z,21.37
2016-07-01T02:02:57.287Z,21.43
2016-07-01T02:03:57.927Z,21.37
2016-07-01T02:04:57.950Z,21.37
2016-07-01T02:05:57.382Z,21.35
2016-07-01T02:06:56.787Z,21.3
2016-07-01T02:07:58.071Z,21.4
2016-07-01T02:08:57.452Z,21.29
2016-07-01T02:09:58.100Z,21.32
2016-07-01T02:10:57.506Z,21.33
2016-07-01T02:11:58.188Z,21.29
2016-07-01T02:12:57.562Z,21.32
2016-07-01T02:13:57.606Z,21.25
2016-07-01T02:14:58.230Z,21.24
2016-07-01T02:15:58.269Z,21.24
2016-07-01T02:16:57.655Z,21.25
2016-07-01T02:17:58.302Z,21.24
2016-07-01T02:18:57.753Z,21.22
2016-07-01T02:19:57.127Z,21.2
2016-07-01T02:20:57.789Z,21.2
2016-07-01T02:21:58.426Z,21.2
2016-07-01T02:22:58.434Z,21.14
2016-07-01T02:23:57.221Z,21.22
2016-07-01T02:24:57.247Z,21.17
2016-07-01T02:25:57.298Z,21.07
2016-07-01T02:26:58.542Z,21.14
2016-07-01T02:27:57.972Z,21.12
2016-07-01T02:28:58.598Z,21.11
2016-07-01T02:29:58.011Z,21.06
2016-07-01T02:30:58.044Z,21.11
2016-07-01T02:31:57.448Z,21.03
2016-07-01T02:32:58.083Z,21.09
2016-07-01T02:33:58.750Z,21.02
2016-07-01T02:34:57.521Z,21.05
2016-07-01T02:35:58.792Z,21
2016-07-01T02:36:57.570Z,21.02
2016-07-01T02:37:58.891Z,20.97
2016-07-01T02:38:58.235Z,21.02
2016-07-01T02:39:58.256Z,20.97
2016-07-01T02:40:58.295Z,20.95
2016-07-01T02:41:58.958Z,20.9
2016-07-01T02:42:58.992Z,20.9
2016-07-01T02:43:59.018Z,20.95
2016-07-01T02:44:58.414Z,20.96
2016-07-01T02:45:58.434Z,20.93
2016-07-01T02:46:58.456Z,20.88
2016-07-01T02:47:58.485Z,20.95
2016-07-01T02:48:57.879Z,20.8
2016-07-01T02:49:58.521Z,20.84
2016-07-01T02:50:58.562Z,20.87
2016-07-01T02:51:57.963Z,20.87
2016-07-01T02:52:58.621Z,20.84
2016-07-01T02:53:58.084Z,20.93
2016-07-01T02:54:59.286Z,20.85
2016-07-01T02:55:59.306Z,20.9
2016-07-01T02:56:58.734Z,20.85
2016-07-01T02:57:59.362Z,20.82
2016-07-01T02:58:58.764Z,20.81
2016-07-01T02:59:58.794Z,20.78
2016-07-01T03:00:58.807Z,20.8
2016-07-01T03:01:58.853Z,20.75
2016-07-01T03:02:59.483Z,20.81
2016-07-01T03:03:58.916Z,20.75
2016-07-01T03:04:58.927Z,20.78
2016-07-01T03:05:58.997Z,20.7
2016-07-01T03:06:58.977Z,20.72
2016-07-01T03:07:58.407Z,20.75
2016-07-01T03:08:59.082Z,20.66
2016-07-01T03:09:58.494Z,20.69
2016-07-01T03:10:59.144Z,20.65
2016-07-01T03:11:59.753Z,20.67
2016-07-01T03:12:59.777Z,20.6
2016-07-01T03:13:59.779Z,20.62
2016-07-01T03:14:59.836Z,20.59
2016-07-01T03:15:59.205Z,20.6
2016-07-01T03:16:59.250Z,20.63
2016-07-01T03:17:59.885Z,20.58
2016-07-01T03:18:59.290Z,20.6
2016-07-01T03:19:58.704Z,20.63
2016-07-01T03:20:59.355Z,20.62
2016-07-01T03:22:00.001Z,20.6
2016-07-01T03:23:00.017Z,20.63
2016-07-01T03:24:00.054Z,20.56
2016-07-01T03:24:58.826Z,20.6
2016-07-01T03:25:59.483Z,20.56
2016-07-01T03:26:59.507Z,20.55
2016-07-01T03:27:59.533Z,20.47
2016-07-01T03:29:00.173Z,20.56
2016-07-01T03:29:59.579Z,20.5
2016-07-01T03:30:59.599Z,20.55
2016-07-01T03:32:00.237Z,20.48
2016-07-01T03:32:59.647Z,20.51
2016-07-01T03:33:59.679Z,20.48
2016-07-01T03:34:59.695Z,20.52
2016-07-01T03:35:59.750Z,20.44
2016-07-01T03:36:59.142Z,20.44
2016-07-01T03:38:00.408Z,20.43
2016-07-01T03:39:00.462Z,20.5
2016-07-01T03:39:59.842Z,20.47
2016-07-01T03:41:00.489Z,20.48
2016-07-01T03:41:59.910Z,20.47
2016-07-01T03:42:59.293Z,20.5
2016-07-01T03:43:59.965Z,20.51
2016-07-01T03:44:59.951Z,20.51
2016-07-01T03:46:00.627Z,20.51
2016-07-01T03:47:00.031Z,20.44
2016-07-01T03:48:00.663Z,20.51
2016-07-01T03:48:59.449Z,20.39
2016-07-01T03:50:00.101Z,20.47
2016-07-01T03:51:00.163Z,20.43
2016-07-01T03:51:59.600Z,20.51
2016-07-01T03:52:59.608Z,20.48
2016-07-01T03:53:59.565Z,20.41
2016-07-01T03:54:59.599Z,20.37
2016-07-01T03:56:01.113Z,20.36
2016-07-01T03:57:00.891Z,20.39
2016-07-01T03:58:00.946Z,20.39
2016-07-01T03:58:59.712Z,20.5
2016-07-01T04:00:00.982Z,20.34
2016-07-01T04:01:01.004Z,20.39
2016-07-01T04:02:01.043Z,20.39
2016-07-01T04:03:00.422Z,20.37
2016-07-01T04:04:01.072Z,20.36
2016-07-01T04:05:01.094Z,20.4
2016-07-01T04:05:59.897Z,20.32
2016-07-01T04:07:01.155Z,20.37
2016-07-01T04:08:00.563Z,20.32
2016-07-01T04:09:00.610Z,20.34
2016-07-01T04:10:00.607Z,20.41
2016-07-01T04:11:01.289Z,20.43
2016-07-01T04:12:00.051Z,20.41
2016-07-01T04:13:00.069Z,20.39
2016-07-01T04:14:00.718Z,20.29
2016-07-01T04:15:01.346Z,20.34
2016-07-01T04:16:00.775Z,20.43
2016-07-01T04:17:00.807Z,20.43
2016-07-01T04:18:01.436Z,20.43
2016-07-01T04:19:01.455Z,20.36
2016-07-01T04:20:00.887Z,20.34
2016-07-01T04:21:01.501Z,20.37
2016-07-01T04:22:00.297Z,20.34
2016-07-01T04:23:00.328Z,20.41
2016-07-01T04:24:01.595Z,20.41
2016-07-01T04:25:00.990Z,20.31
2016-07-01T04:26:01.646Z,20.32
2016-07-01T04:27:00.430Z,20.4
2016-07-01T04:28:01.079Z,20.37
2016-07-01T04:29:00.482Z,20.36
2016-07-01T04:30:01.746Z,20.4
2016-07-01T04:31:01.770Z,20.39
2016-07-01T04:32:01.178Z,20.4
2016-07-01T04:33:00.578Z,20.37
2016-07-01T04:34:01.231Z,20.37
2016-07-01T04:35:01.877Z,20.37
2016-07-01T04:36:01.920Z,20.4
2016-07-01T04:37:00.676Z,20.24
2016-07-01T04:38:01.373Z,20.34
2016-07-01T04:39:00.759Z,20.4
2016-07-01T04:40:02.014Z,20.39
2016-07-01T04:41:01.403Z,20.43
2016-07-01T04:42:01.447Z,20.29
2016-07-01T04:43:01.459Z,20.41
2016-07-01T04:44:02.096Z,20.34
2016-07-01T04:45:01.510Z,20.26
2016-07-01T04:46:01.564Z,20.4
2016-07-01T04:47:01.567Z,20.4
2016-07-01T04:48:02.209Z,20.4
2016-07-01T04:49:01.002Z,20.37
2016-07-01T04:50:01.640Z,20.4
2016-07-01T04:51:01.050Z,20.28
2016-07-01T04:52:02.330Z,20.39
2016-07-01T04:53:01.698Z,20.26
2016-07-01T04:54:01.134Z,20.43
2016-07-01T04:55:02.376Z,20.43
2016-07-01T04:56:01.803Z,20.32
2016-07-01T04:57:01.818Z,20.43
2016-07-01T04:58:01.832Z,20.39
2016-07-01T04:59:01.866Z,20.47
2016-07-01T05:00:01.901Z,20.47
2016-07-01T05:01:02.528Z,20.43
2016-07-01T05:02:02.590Z,20.44
2016-07-01T05:03:01.995Z,20.44
2016-07-01T05:04:02.008Z,20.47
2016-07-01T05:05:02.635Z,20.31
2016-07-01T05:06:02.057Z,20.37
2016-07-01T05:07:02.714Z,20.48
2016-07-01T05:08:02.096Z,20.44
2016-07-01T05:09:02.738Z,20.36
2016-07-01T05:10:02.779Z,20.4
2016-07-01T05:11:01.565Z,20.44
2016-07-01T05:12:02.215Z,20.39
2016-07-01T05:13:02.239Z,20.44
2016-07-01T05:14:02.875Z,20.39
2016-07-01T05:15:02.287Z,20.5
2016-07-01T05:16:02.303Z,20.39
2016-07-01T05:17:02.935Z,20.43
2016-07-01T05:18:02.352Z,20.48
2016-07-01T05:19:01.749Z,20.4
2016-07-01T05:20:01.784Z,20.47
2016-07-01T05:21:03.061Z,20.5
2016-07-01T05:22:01.834Z,20.52
2016-07-01T05:23:02.496Z,20.48
2016-07-01T05:24:03.125Z,20.48
2016-07-01T05:25:03.141Z,20.4
2016-07-01T05:26:02.570Z,20.44
2016-07-01T05:27:02.577Z,20.52
2016-07-01T05:28:02.619Z,20.47
2016-07-01T05:29:02.627Z,20.55
2016-07-01T05:30:02.657Z,20.48
2016-07-01T05:31:02.676Z,20.41
2016-07-01T05:32:02.093Z,20.52
2016-07-01T05:33:03.364Z,20.48
2016-07-01T05:34:02.139Z,20.47
2016-07-01T05:35:03.405Z,20.51
2016-07-01T05:36:02.817Z,20.52
2016-07-01T05:37:03.453Z,20.48
2016-07-01T05:38:02.919Z,20.59
2016-07-01T05:39:03.517Z,20.52
2016-07-01T05:40:03.530Z,20.58
2016-07-01T05:41:02.932Z,20.58
2016-07-01T05:42:02.975Z,20.67
2016-07-01T05:43:02.368Z,20.6
2016-07-01T05:44:03.009Z,20.59
2016-07-01T05:45:03.032Z,20.56
2016-07-01T05:46:02.503Z,20.63
2016-07-01T05:47:03.113Z,20.63
2016-07-01T05:48:03.135Z,20.7
2016-07-01T05:49:02.552Z,20.6
2016-07-01T05:50:03.792Z,20.63
2016-07-01T05:51:03.201Z,20.7
2016-07-01T05:52:03.865Z,20.74
2016-07-01T05:53:03.867Z,20.74
2016-07-01T05:54:03.894Z,20.77
2016-07-01T05:55:03.304Z,20.74
2016-07-01T05:56:03.326Z,20.78
2016-07-01T05:57:03.353Z,20.77
2016-07-01T05:58:03.366Z,20.75
2016-07-01T05:59:02.778Z,20.75
2016-07-01T06:00:04.044Z,20.82
2016-07-01T06:01:04.070Z,20.84
2016-07-01T06:02:03.496Z,20.8
2016-07-01T06:03:02.895Z,20.8
2016-07-01T06:04:04.146Z,20.78
2016-07-01T06:05:04.182Z,20.85
2016-07-01T06:06:04.194Z,20.85
2016-07-01T06:07:04.220Z,20.92
2016-07-01T06:08:04.250Z,20.88
2016-07-01T06:09:03.051Z,20.93
2016-07-01T06:10:04.307Z,20.95
2016-07-01T06:11:03.749Z,20.93
2016-07-01T06:12:04.359Z,20.92
2016-07-01T06:13:04.402Z,20.92
2016-07-01T06:14:04.396Z,21
2016-07-01T06:15:04.425Z,21.02
2016-07-01T06:16:04.466Z,21.05
2016-07-01T06:17:03.251Z,21.02
2016-07-01T06:18:03.284Z,21.03
2016-07-01T06:19:04.539Z,21.06
2016-07-01T06:20:04.583Z,21.06
2016-07-01T06:21:04.045Z,21.11
2016-07-01T06:22:04.609Z,21.11
2016-07-01T06:23:04.014Z,21.17
2016-07-01T06:24:03.432Z,21.21
2016-07-01T06:25:04.084Z,21.2
2016-07-01T06:26:04.093Z,21.24
2016-07-01T06:27:04.942Z,21.17
2016-07-01T06:28:03.752Z,21.25
2016-07-01T06:29:04.802Z,21.27
2016-07-01T06:30:03.579Z,21.33
2016-07-01T06:31:04.231Z,21.29
2016-07-01T06:32:04.867Z,21.39
2016-07-01T06:33:04.916Z,21.32
2016-07-01T06:34:04.318Z,21.36
2016-07-01T06:35:04.949Z,21.35
2016-07-01T06:36:04.350Z,21.4
2016-07-01T06:37:04.384Z,21.35
2016-07-01T06:38:05.073Z,21.43
2016-07-01T06:39:04.441Z,21.46
2016-07-01T06:40:04.475Z,21.42
2016-07-01T06:41:04.484Z,21.51
2016-07-01T06:42:05.128Z,21.57
2016-07-01T06:43:05.178Z,21.58
2016-07-01T06:44:05.200Z,21.55
2016-07-01T06:45:04.594Z,21.52
2016-07-01T06:46:04.624Z,21.61
2016-07-01T06:47:04.039Z,21.64
2016-07-01T06:48:04.048Z,21.69
2016-07-01T06:49:04.705Z,21.62
2016-07-01T06:50:05.334Z,21.77
2016-07-01T06:51:05.367Z,21.75
2016-07-01T06:52:05.381Z,21.82
2016-07-01T06:53:04.813Z,21.79
2016-07-01T06:54:04.207Z,21.82
2016-07-01T06:55:04.850Z,21.89
2016-07-01T06:56:04.890Z,21.92
2016-07-01T06:57:04.903Z,21.93
2016-07-01T06:58:05.558Z,21.98
2016-07-01T06:59:04.964Z,22
2016-07-01T07:00:05.600Z,21.96
2016-07-01T07:01:05.618Z,22.02
2016-07-01T07:02:05.017Z,22.02
2016-07-01T07:03:04.457Z,22.07
2016-07-01T07:04:05.692Z,22.14
2016-07-01T07:05:05.113Z,22.13
2016-07-01T07:06:05.751Z,22.22
2016-07-01T07:07:05.791Z,22.2
2016-07-01T07:08:05.214Z,22.28
2016-07-01T07:09:05.845Z,22.29
2016-07-01T07:10:05.284Z,22.35
2016-07-01T07:11:04.672Z,22.36
2016-07-01T07:12:05.294Z,22.44
2016-07-01T07:13:06.343Z,22.41
2016-07-01T07:14:05.342Z,22.48
2016-07-01T07:15:05.373Z,22.47
2016-07-01T07:16:04.797Z,22.43
2016-07-01T07:17:05.420Z,22.63
2016-07-01T07:18:05.467Z,22.57
2016-07-01T07:19:05.492Z,22.6
2016-07-01T07:20:06.144Z,22.68
2016-07-01T07:21:05.576Z,22.69
2016-07-01T07:22:05.554Z,22.81
2016-07-01T07:23:05.576Z,22.88
2016-07-01T07:24:05.623Z,22.88
2016-07-01T07:25:05.662Z,22.93
2016-07-01T07:26:06.279Z,22.93
2016-07-01T07:27:05.714Z,22.99
2016-07-01T07:28:06.352Z,23.09
2016-07-01T07:29:05.282Z,23.13
2016-07-01T07:30:05.943Z,23.18
2016-07-01T07:31:05.293Z,23.24
2016-07-01T07:32:05.929Z,23.21
2016-07-01T07:33:05.493Z,23.31
2016-07-01T07:34:06.570Z,23.39
2016-07-01T07:35:06.086Z,23.36
2016-07-01T07:36:06.121Z,23.55
2016-07-01T07:37:06.614Z,23.5
2016-07-01T07:38:06.750Z,23.54
2016-07-01T07:39:06.691Z,23.55
2016-07-01T07:40:06.127Z,23.61
2016-07-01T07:41:06.155Z,23.74
2016-07-01T07:42:06.134Z,23.69
2016-07-01T07:43:06.141Z,23.69
2016-07-01T07:44:06.163Z,23.81
2016-07-01T07:45:06.794Z,23.74
2016-07-01T07:46:06.206Z,23.73
2016-07-01T07:47:05.608Z,23.8
2016-07-01T07:48:06.247Z,23.92
2016-07-01T07:49:06.275Z,23.83
2016-07-01T07:50:06.315Z,23.99
2016-07-01T07:51:06.333Z,24.01
2016-07-01T07:52:06.366Z,24.06
2016-07-01T07:53:07.032Z,24.13
2016-07-01T07:54:06.416Z,24.17
2016-07-01T07:55:06.496Z,24.18
2016-07-01T07:56:07.086Z,24.29
2016-07-01T07:57:05.883Z,24.32
2016-07-01T07:58:07.191Z,24.39
2016-07-01T07:59:05.937Z,24.43
2016-07-01T08:00:07.201Z,24.54
2016-07-01T08:01:07.242Z,24.6
2016-07-01T08:02:06.671Z,24.6
2016-07-01T08:03:06.667Z,24.78
2016-07-01T08:04:07.328Z,24.68
2016-07-01T08:05:06.857Z,24.86
2016-07-01T08:06:06.117Z,24.85
2016-07-01T08:07:06.755Z,24.96
2016-07-01T08:08:06.802Z,25.04
2016-07-01T08:09:07.449Z,25.08
2016-07-01T08:10:06.868Z,25.14
2016-07-01T08:11:06.254Z,25.14
2016-07-01T08:12:06.907Z,25.14
2016-07-01T08:13:06.316Z,25.29
2016-07-01T08:14:06.346Z,25.31
2016-07-01T08:15:06.988Z,25.33
2016-07-01T08:16:07.021Z,25.46
2016-07-01T08:17:07.047Z,25.48
2016-07-01T08:18:07.084Z,25.6
2016-07-01T08:19:07.097Z,25.51
2016-07-01T08:20:07.162Z,25.59
2016-07-01T08:21:07.149Z,25.7
2016-07-01T08:22:06.569Z,25.75
2016-07-01T08:23:07.826Z,25.83
2016-07-01T08:24:07.304Z,25.87
2016-07-01T08:25:07.931Z,25.91
2016-07-01T08:26:07.934Z,25.99
2016-07-01T08:27:07.472Z,25.96
2016-07-01T08:28:07.959Z,26.06
2016-07-01T08:29:06.830Z,26.07
2016-07-01T08:30:08.044Z,26.1
2016-07-01T08:31:08.050Z,26.13
2016-07-01T08:32:07.480Z,26.22
2016-07-01T08:33:07.486Z,26.25
2016-07-01T08:34:06.884Z,26.29
2016-07-01T08:35:08.215Z,26.34
2016-07-01T08:36:07.567Z,26.38
2016-07-01T08:37:07.602Z,26.45
2016-07-01T08:38:08.281Z,26.45
2016-07-01T08:39:07.639Z,26.53
2016-07-01T08:40:07.675Z,26.55
2016-07-01T08:41:07.831Z,26.65
2016-07-01T08:42:07.827Z,26.78
2016-07-01T08:43:07.821Z,26.8
2016-07-01T08:44:07.999Z,26.85
2016-07-01T08:45:08.639Z,26.89
2016-07-01T08:46:07.895Z,26.97
2016-07-01T08:47:07.921Z,27.11
2016-07-01T08:48:08.042Z,27.17
2016-07-01T08:49:08.048Z,27.2
2016-07-01T08:50:07.349Z,27.22
2016-07-01T08:51:08.717Z,27.4
2016-07-01T08:52:08.721Z,27.47
2016-07-01T08:53:08.673Z,27.47
2016-07-01T08:54:08.689Z,27.45
2016-07-01T08:55:07.486Z,27.59
2016-07-01T08:56:08.859Z,27.55
2016-07-01T08:57:08.894Z,27.7
2016-07-01T08:58:08.895Z,27.75
2016-07-01T08:59:07.602Z,27.87
2016-07-01T09:00:07.643Z,27.96
2016-07-01T09:01:08.294Z,28.04
2016-07-01T09:02:08.320Z,28.01
2016-07-01T09:03:08.985Z,28.17
2016-07-01T09:04:07.748Z,28.19
2016-07-01T09:05:07.818Z,28.29
2016-07-01T09:06:08.458Z,28.38
2016-07-01T09:07:08.470Z,28.41
2016-07-01T09:08:09.159Z,28.49
2016-07-01T09:09:09.174Z,28.47
2016-07-01T09:10:08.561Z,28.63
2016-07-01T09:11:08.906Z,28.74
2016-07-01T09:12:08.587Z,28.78
2016-07-01T09:13:08.633Z,28.89
2016-07-01T09:14:08.771Z,28.88
2016-07-01T09:15:09.399Z,28.97
2016-07-01T09:16:08.831Z,29.02
2016-07-01T09:17:08.975Z,29.02
2016-07-01T09:18:09.426Z,29.22
2016-07-01T09:19:08.946Z,29.13
2016-07-01T09:20:09.462Z,29.2
2016-07-01T09:21:09.565Z,29.31
2016-07-01T09:22:08.902Z,29.32
2016-07-01T09:23:09.572Z,29.41
2016-07-01T09:24:08.962Z,29.41
2016-07-01T09:25:08.383Z,29.54
2016-07-01T09:26:09.038Z,29.63
2016-07-01T09:27:09.059Z,29.57
2016-07-01T09:28:09.101Z,29.69
2016-07-01T09:29:09.737Z,29.66
2016-07-01T09:30:09.767Z,29.76
2016-07-01T09:31:08.571Z,29.84
2016-07-01T09:32:09.822Z,29.94
2016-07-01T09:33:08.627Z,30.02
2016-07-01T09:34:09.302Z,30.05
2016-07-01T09:35:09.957Z,30.13
2016-07-01T09:36:10.162Z,30.13
2016-07-01T09:37:08.744Z,30.25
2016-07-01T09:38:10.065Z,30.27
2016-07-01T09:39:10.146Z,30.28
2016-07-01T09:40:09.516Z,30.35
2016-07-01T09:41:08.938Z,30.35
2016-07-01T09:42:09.626Z,30.47
2016-07-01T09:43:09.049Z,30.46
2016-07-01T09:44:08.976Z,30.48
2016-07-01T09:45:09.764Z,30.47
2016-07-01T09:46:09.758Z,30.55
2016-07-01T09:47:09.775Z,30.55
2016-07-01T09:48:09.187Z,30.72
2016-07-01T09:49:09.219Z,30.75
2016-07-01T09:50:09.868Z,30.8
2016-07-01T09:51:10.658Z,30.83
2016-07-01T09:52:10.498Z,30.87
2016-07-01T09:53:10.487Z,30.96
2016-07-01T09:54:09.870Z,31.1
2016-07-01T09:55:10.637Z,31.17
2016-07-01T09:56:09.965Z,31.27
2016-07-01T09:57:09.966Z,31.28
2016-07-01T09:58:10.025Z,31.39
2016-07-01T09:59:10.058Z,31.33
2016-07-01T10:00:10.834Z,31.36
2016-07-01T10:01:10.091Z,31.44
2016-07-01T10:02:10.759Z,31.59
2016-07-01T10:03:09.546Z,31.61
2016-07-01T10:04:10.199Z,31.64
2016-07-01T10:05:10.220Z,31.73
2016-07-01T10:06:09.677Z,31.84
2016-07-01T10:07:10.954Z,31.89
2016-07-01T10:08:09.731Z,31.9
2016-07-01T10:09:10.974Z,31.93
2016-07-01T10:10:10.370Z,32.11
2016-07-01T10:11:10.403Z,32.11
2016-07-01T10:12:10.534Z,32.15
2016-07-01T10:13:10.215Z,32.29
2016-07-01T10:14:10.739Z,32.37
2016-07-01T10:15:10.733Z,32.43
2016-07-01T10:16:10.737Z,32.49
2016-07-01T10:17:11.365Z,32.53
2016-07-01T10:18:11.370Z,32.52
2016-07-01T10:19:10.763Z,32.67
2016-07-01T10:20:10.766Z,32.67
2016-07-01T10:21:10.809Z,32.63
2016-07-01T10:22:11.440Z,32.67
2016-07-01T10:23:10.901Z,32.65
2016-07-01T10:24:10.902Z,32.64
2016-07-01T10:25:11.002Z,32.7
2016-07-01T10:26:10.974Z,32.82
2016-07-01T10:27:11.584Z,32.9
2016-07-01T10:28:11.581Z,32.93
2016-07-01T10:29:11.605Z,32.96
2016-07-01T10:30:11.646Z,33.09
2016-07-01T10:31:11.683Z,33.09
2016-07-01T10:32:11.702Z,33.24
2016-07-01T10:33:11.138Z,33.45
2016-07-01T10:34:11.799Z,33.4
2016-07-01T10:35:10.559Z,33.37
2016-07-01T10:36:11.834Z,33.5
2016-07-01T10:37:11.890Z,33.55
2016-07-01T10:38:11.984Z,33.59
2016-07-01T10:39:11.330Z,33.67
2016-07-01T10:40:11.360Z,33.65
2016-07-01T10:41:10.775Z,33.71
2016-07-01T10:42:12.043Z,33.76
2016-07-01T10:43:12.084Z,33.8
2016-07-01T10:44:10.914Z,33.87
2016-07-01T10:45:11.536Z,33.84
2016-07-01T10:46:12.182Z,33.87
2016-07-01T10:47:12.243Z,33.89
2016-07-01T10:48:11.034Z,33.98
2016-07-01T10:49:12.302Z,34.01
2016-07-01T10:50:11.077Z,34.02
2016-07-01T10:51:11.113Z,33.95
2016-07-01T10:52:11.367Z,34.05
2016-07-01T10:53:11.806Z,34.05
2016-07-01T10:54:12.453Z,34.06
2016-07-01T10:55:12.488Z,34.01
2016-07-01T10:56:11.907Z,33.95
2016-07-01T10:57:11.943Z,34.05
2016-07-01T10:58:11.350Z,33.96
2016-07-01T10:59:12.407Z,33.92
2016-07-01T11:00:11.426Z,33.89
2016-07-01T11:01:12.048Z,33.87
2016-07-01T11:02:12.101Z,33.83
2016-07-01T11:03:12.140Z,33.71
2016-07-01T11:04:12.770Z,33.76
2016-07-01T11:05:12.820Z,33.74
2016-07-01T11:06:12.230Z,33.73
2016-07-01T11:07:12.272Z,33.71
2016-07-01T11:08:11.685Z,33.69
2016-07-01T11:09:12.335Z,33.71
2016-07-01T11:10:12.379Z,33.79
2016-07-01T11:11:13.031Z,33.76
2016-07-01T11:12:12.427Z,33.81
2016-07-01T11:13:12.463Z,33.84
2016-07-01T11:14:11.926Z,33.94
2016-07-01T11:15:12.541Z,33.89
2016-07-01T11:16:13.175Z,34.1
2016-07-01T11:17:13.216Z,34.14
2016-07-01T11:18:13.255Z,34.18
2016-07-01T11:19:12.050Z,34.35
2016-07-01T11:20:12.077Z,34.38
2016-07-01T11:21:12.762Z,34.47
2016-07-01T11:22:13.394Z,34.52
2016-07-01T11:23:12.813Z,34.58
2016-07-01T11:24:13.479Z,34.54
2016-07-01T11:25:12.910Z,34.52
2016-07-01T11:26:13.049Z,34.51
2016-07-01T11:27:13.567Z,34.58
2016-07-01T11:28:12.987Z,34.54
2016-07-01T11:29:12.543Z,34.55
2016-07-01T11:30:13.062Z,34.51
2016-07-01T11:31:13.744Z,34.45
2016-07-01T11:32:13.740Z,34.35
2016-07-01T11:33:13.166Z,34.38
2016-07-01T11:34:13.835Z,34.29
2016-07-01T11:35:13.846Z,34.23
2016-07-01T11:36:12.642Z,34.18
2016-07-01T11:37:13.290Z,34.11
2016-07-01T11:38:13.941Z,34.21
2016-07-01T11:39:14.041Z,34.16
2016-07-01T11:40:13.658Z,34.16
2016-07-01T11:41:13.542Z,34.14
2016-07-01T11:42:13.469Z,34.36
2016-07-01T11:43:13.492Z,34.35
2016-07-01T11:44:13.719Z,34.51
2016-07-01T11:45:14.214Z,34.55
2016-07-01T11:46:12.979Z,34.7
2016-07-01T11:47:14.315Z,34.75
2016-07-01T11:48:13.061Z,34.75
2016-07-01T11:49:13.109Z,34.92
2016-07-01T11:50:13.772Z,35
2016-07-01T11:51:14.394Z,35.08
2016-07-01T11:52:13.204Z,35.19
2016-07-01T11:53:13.843Z,35.27
2016-07-01T11:54:14.506Z,35.31
2016-07-01T11:55:14.558Z,35.27
2016-07-01T11:56:14.586Z,35.3
2016-07-01T11:57:13.976Z,35.31
2016-07-01T11:58:14.638Z,35.3
2016-07-01T11:59:14.685Z,35.27
2016-07-01T12:00:14.102Z,35.29
2016-07-01T12:01:14.138Z,35.24
2016-07-01T12:02:14.166Z,35.19
2016-07-01T12:03:14.201Z,35.22
2016-07-01T12:04:14.878Z,35.3
2016-07-01T12:05:13.670Z,35.29
2016-07-01T12:06:13.678Z,35.36
2016-07-01T12:07:14.392Z,35.49
2016-07-01T12:08:14.391Z,35.67
2016-07-01T12:09:13.799Z,35.68
2016-07-01T12:10:13.820Z,35.89
2016-07-01T12:11:15.106Z,35.86
2016-07-01T12:12:14.517Z,35.95
2016-07-01T12:13:15.223Z,36.07
2016-07-01T12:14:15.244Z,36.24
2016-07-01T12:15:15.269Z,36.3
2016-07-01T12:16:14.045Z,36.37
2016-07-01T12:17:15.320Z,36.33
2016-07-01T12:18:14.743Z,36.39
2016-07-01T12:19:15.519Z,36.35
2016-07-01T12:20:14.811Z,36.37
2016-07-01T12:21:14.828Z,36.36
2016-07-01T12:22:15.577Z,36.31
2016-07-01T12:23:15.581Z,36.2
2016-07-01T12:24:14.950Z,36.17
2016-07-01T12:25:14.371Z,36.16
2016-07-01T12:26:15.021Z,36.14
2016-07-01T12:27:15.779Z,35.98
2016-07-01T12:28:15.082Z,35.86
2016-07-01T12:29:16.199Z,35.89
2016-07-01T12:30:15.196Z,35.76
2016-07-01T12:31:15.854Z,35.78
2016-07-01T12:32:15.237Z,35.68
2016-07-01T12:33:15.260Z,35.67
2016-07-01T12:34:15.298Z,35.58
2016-07-01T12:35:15.986Z,35.52
2016-07-01T12:36:15.474Z,35.46
2016-07-01T12:37:14.803Z,35.31
2016-07-01T12:38:15.472Z,35.33
2016-07-01T12:39:16.120Z,35.29
2016-07-01T12:40:14.906Z,35.19
2016-07-01T12:41:15.659Z,35.19
2016-07-01T12:42:14.975Z,35.19
2016-07-01T12:43:15.007Z,35.14
2016-07-01T12:44:15.674Z,35.05
2016-07-01T12:45:15.793Z,35
2016-07-01T12:46:15.834Z,35.05
2016-07-01T12:47:15.153Z,34.9
2016-07-01T12:48:15.818Z,34.88
2016-07-01T12:49:15.858Z,34.86
2016-07-01T12:50:15.890Z,34.85
2016-07-01T12:51:15.902Z,34.77
2016-07-01T12:52:16.660Z,34.74
2016-07-01T12:53:16.038Z,34.67
2016-07-01T12:54:16.664Z,34.8
2016-07-01T12:55:16.063Z,34.7
2016-07-01T12:56:16.793Z,34.66
2016-07-01T12:57:16.132Z,34.78